Time;durP1;ratioP1;P1;durP2;ratioP2;P2;SDS_P1;SDS_P2;PMS_P1;PMS_P2;Temp;Humidity;BMP_temperature;BMP_pressure;BME280_temperature;BME280_humidity;BME280_pressure;Samples;Min_cycle;Max_cycle;Signal;HPM_P1;HPM_P2
2024/04/03 00:01:14;;;;;;;5.82;1.70;;;10.10;99.90;;;;;;6136231;23;20013;-76
2024/04/03 00:03:42;;;;;;;4.90;1.45;;;10.10;99.90;;;;;;6137721;23;20021;-75
2024/04/03 00:06:09;;;;;;;4.40;1.98;;;10.10;99.90;;;;;;6111272;23;20020;-77
2024/04/03 00:08:36;;;;;;;4.38;1.60;;;10.10;99.90;;;;;;6164558;23;20127;-76
2024/04/03 00:11:02;;;;;;;5.38;1.65;;;10.20;99.90;;;;;;6172964;23;20020;-77
2024/04/03 00:13:29;;;;;;;4.18;1.55;;;10.20;99.90;;;;;;6173160;23;20015;-77
2024/04/03 00:15:56;;;;;;;5.10;1.70;;;10.20;99.90;;;;;;6173199;23;20012;-76
2024/04/03 00:18:23;;;;;;;2.00;1.27;;;10.20;99.90;;;;;;6146554;23;20020;-75
2024/04/03 00:21:02;;;;;;;5.85;2.05;;;10.20;99.90;;;;;;6173183;23;20401;-76
2024/04/03 00:23:29;;;;;;;4.95;1.50;;;10.20;99.90;;;;;;6082586;23;20338;-77
2024/04/03 00:26:00;;;;;;;6.53;2.13;;;10.30;99.90;;;;;;6119181;23;20019;-77
2024/04/03 00:28:27;;;;;;;6.07;2.63;;;10.30;99.90;;;;;;6172025;23;20004;-77
2024/04/03 00:30:54;;;;;;;6.28;2.97;;;10.30;99.90;;;;;;6120923;23;20015;-76
2024/04/03 00:33:21;;;;;;;6.97;3.58;;;10.30;99.90;;;;;;6135512;23;20817;-75
2024/04/03 00:35:58;;;;;;;7.18;3.88;;;10.20;99.90;;;;;;6108389;23;20476;-76
2024/04/03 00:38:25;;;;;;;4.80;2.40;;;10.20;99.90;;;;;;6171852;23;20004;-75
2024/04/03 00:40:59;;;;;;;3.67;1.73;;;10.30;99.90;;;;;;6170138;23;20008;-75
2024/04/03 00:43:27;;;;;;;8.73;3.70;;;10.30;99.90;;;;;;6146433;23;20012;-75
2024/04/03 00:45:54;;;;;;;8.02;4.22;;;10.20;99.90;;;;;;6124106;23;20009;-77
2024/04/03 00:48:22;;;;;;;6.28;3.80;;;10.20;99.90;;;;;;6136874;23;20037;-76
2024/04/03 00:50:50;;;;;;;7.20;4.13;;;10.20;99.90;;;;;;6114007;23;20009;-77
2024/04/03 00:53:18;;;;;;;5.82;3.45;;;10.20;99.90;;;;;;6172291;23;20346;-77
2024/04/03 00:55:45;;;;;;;5.88;3.25;;;10.20;99.90;;;;;;6146199;23;20343;-77
2024/04/03 00:58:11;;;;;;;5.50;3.15;;;10.30;99.90;;;;;;6145043;23;20009;-76
2024/04/03 01:00:38;;;;;;;4.97;2.92;;;10.30;99.90;;;;;;6144114;23;20347;-75
2024/04/03 01:03:05;;;;;;;5.28;3.28;;;10.30;99.90;;;;;;6112038;23;20474;-76
2024/04/03 01:05:32;;;;;;;4.82;2.60;;;10.30;99.90;;;;;;6136863;23;20449;-76
2024/04/03 01:07:58;;;;;;;4.60;3.53;;;10.30;99.90;;;;;;6111272;23;20028;-75
2024/04/03 01:10:26;;;;;;;4.15;3.75;;;10.30;99.90;;;;;;6173734;23;21002;-76
2024/04/03 01:12:54;;;;;;;7.05;4.78;;;10.30;99.90;;;;;;6147399;23;20518;-76
2024/04/03 01:15:21;;;;;;;8.57;5.47;;;10.30;99.90;;;;;;6147923;23;20343;-76
2024/04/03 01:17:47;;;;;;;8.32;5.05;;;10.30;99.90;;;;;;6087809;23;20013;-77
2024/04/03 01:20:16;;;;;;;6.80;5.15;;;10.30;99.90;;;;;;6161714;23;20506;-76
2024/04/03 01:22:42;;;;;;;5.45;4.65;;;10.30;99.90;;;;;;6137321;23;20017;-76
2024/04/03 01:25:09;;;;;;;8.15;4.75;;;10.40;99.90;;;;;;6112811;23;20016;-75
2024/04/03 01:27:35;;;;;;;6.07;4.63;;;10.30;99.90;;;;;;6172677;23;20001;-76
2024/04/03 01:30:02;;;;;;;5.05;4.00;;;10.40;99.90;;;;;;6138327;23;20009;-76
2024/04/03 01:32:30;;;;;;;6.22;4.85;;;10.40;99.90;;;;;;6148451;23;20008;-77
2024/04/03 01:34:56;;;;;;;5.28;4.25;;;10.30;99.90;;;;;;6148711;23;20015;-78
2024/04/03 01:37:22;;;;;;;4.72;3.33;;;10.40;99.90;;;;;;6173883;23;20008;-77
2024/04/03 01:39:49;;;;;;;2.80;2.10;;;10.30;99.90;;;;;;6173516;23;20005;-75
2024/04/03 01:42:17;;;;;;;2.92;1.88;;;10.30;99.90;;;;;;6148131;23;20008;-78
2024/04/03 01:44:43;;;;;;;3.85;2.97;;;10.30;99.90;;;;;;6174931;23;20009;-79
2024/04/03 01:47:10;;;;;;;2.95;2.60;;;10.30;99.90;;;;;;6173799;23;20009;-76
2024/04/03 01:49:36;;;;;;;3.05;1.75;;;10.30;99.90;;;;;;6162152;23;20009;-77
2024/04/03 01:52:02;;;;;;;2.97;2.10;;;10.30;99.90;;;;;;6138185;23;20020;-77
2024/04/03 01:54:30;;;;;;;2.58;1.80;;;10.30;99.90;;;;;;6137948;23;20432;-76
2024/04/03 01:56:57;;;;;;;2.72;1.58;;;10.30;99.90;;;;;;6114062;23;20024;-78
2024/04/03 01:59:23;;;;;;;4.13;1.90;;;10.30;99.90;;;;;;6149447;23;20031;-76
2024/04/03 02:01:49;;;;;;;3.75;2.05;;;10.30;99.90;;;;;;6174672;23;20315;-79
2024/04/03 02:04:15;;;;;;;2.55;1.40;;;10.30;99.90;;;;;;6149809;23;20005;-77
2024/04/03 02:06:42;;;;;;;4.05;2.08;;;10.30;99.90;;;;;;6138207;23;20016;-77
2024/04/03 02:09:08;;;;;;;2.88;2.47;;;10.40;99.90;;;;;;6136436;23;20028;-77
2024/04/03 02:11:34;;;;;;;4.47;2.63;;;10.30;99.90;;;;;;6174237;23;20015;-77
2024/04/03 02:14:01;;;;;;;3.38;2.15;;;10.30;99.90;;;;;;6186293;23;20616;-76
2024/04/03 02:16:29;;;;;;;3.95;1.67;;;10.30;99.90;;;;;;6146564;23;20368;-77
2024/04/03 02:18:58;;;;;;;5.05;3.28;;;10.30;99.90;;;;;;6136670;23;20346;-77
2024/04/03 02:21:25;;;;;;;4.30;2.63;;;10.30;99.90;;;;;;6173691;23;20024;-76
2024/04/03 02:23:51;;;;;;;4.13;2.92;;;10.30;99.90;;;;;;6137419;23;20027;-77
2024/04/03 02:26:17;;;;;;;4.57;2.53;;;10.30;99.90;;;;;;6136786;23;20028;-77
2024/04/03 02:28:44;;;;;;;9.40;4.68;;;10.30;99.90;;;;;;6174708;23;20013;-77
2024/04/03 02:31:10;;;;;;;3.92;2.05;;;10.30;99.90;;;;;;6138143;23;20503;-77
2024/04/03 02:33:38;;;;;;;4.60;2.50;;;10.30;99.90;;;;;;6197219;23;20108;-78
2024/04/03 02:36:12;;;;;;;3.60;1.65;;;10.30;99.90;;;;;;6172910;23;20004;-77
2024/04/03 02:38:39;;;;;;;3.97;1.38;;;10.30;99.90;;;;;;6171008;23;20449;-76
2024/04/03 02:41:05;;;;;;;1.42;1.13;;;10.30;99.90;;;;;;6110930;23;20005;-77
2024/04/03 02:43:32;;;;;;;3.17;1.10;;;10.20;99.90;;;;;;6171674;23;20024;-75
2024/04/03 02:45:58;;;;;;;1.92;1.20;;;10.30;99.90;;;;;;6136669;23;20068;-77
2024/04/03 02:48:28;;;;;;;3.97;0.90;;;10.30;99.90;;;;;;6150017;23;20016;-76
2024/04/03 02:51:05;;;;;;;1.48;0.70;;;10.30;99.90;;;;;;6215417;23;20006;-76
2024/04/03 02:53:32;;;;;;;2.47;0.80;;;10.30;99.90;;;;;;6117555;23;20020;-77
2024/04/03 02:56:08;;;;;;;0.95;0.57;;;10.30;99.90;;;;;;6173314;23;20005;-77
2024/04/03 02:58:35;;;;;;;2.63;0.65;;;10.30;99.90;;;;;;6135292;23;20537;-77
2024/04/03 03:01:06;;;;;;;2.35;0.90;;;10.30;99.90;;;;;;6109260;23;20028;-77
2024/04/03 03:03:34;;;;;;;2.38;1.27;;;10.30;99.90;;;;;;6111526;23;20013;-76
2024/04/03 03:06:02;;;;;;;3.17;1.00;;;10.30;99.90;;;;;;6121110;23;20005;-76
2024/04/03 03:08:31;;;;;;;1.60;1.02;;;10.20;99.90;;;;;;6111476;23;20025;-76
2024/04/03 03:10:58;;;;;;;4.60;0.90;;;10.20;99.90;;;;;;6173872;23;20533;-77
2024/04/03 03:13:26;;;;;;;2.72;0.90;;;10.20;99.90;;;;;;6111750;23;20009;-77
2024/04/03 03:15:53;;;;;;;4.10;2.00;;;10.20;99.90;;;;;;6135551;23;20017;-76
2024/04/03 03:18:22;;;;;;;2.50;0.85;;;10.20;99.90;;;;;;6170321;23;20346;-77
2024/04/03 03:20:49;;;;;;;3.53;1.77;;;10.20;99.90;;;;;;6145351;23;20334;-77
2024/04/03 03:23:16;;;;;;;2.80;1.33;;;10.10;99.90;;;;;;6111056;23;20501;-77
2024/04/03 03:25:44;;;;;;;1.80;1.15;;;10.10;99.90;;;;;;6136737;23;20020;-77
2024/04/03 03:28:11;;;;;;;3.30;1.50;;;10.10;99.90;;;;;;6172782;23;20362;-76
2024/04/03 03:30:38;;;;;;;4.68;1.85;;;10.10;99.90;;;;;;6146336;23;20505;-76
2024/04/03 03:33:05;;;;;;;3.33;1.65;;;10.10;99.90;;;;;;6136109;23;20013;-77
2024/04/03 03:35:31;;;;;;;5.30;2.10;;;10.10;99.90;;;;;;6136626;23;20212;-78
2024/04/03 03:37:58;;;;;;;3.95;1.95;;;10.10;99.90;;;;;;6111641;23;20013;-77
2024/04/03 03:40:26;;;;;;;2.97;1.50;;;10.10;99.90;;;;;;6147614;23;20012;-78
2024/04/03 03:42:52;;;;;;;5.60;1.90;;;10.10;99.90;;;;;;6136124;23;20009;-79
2024/04/03 03:45:22;;;;;;;4.20;2.03;;;10.10;99.90;;;;;;6171940;23;20382;-76
2024/04/03 03:47:48;;;;;;;5.88;1.83;;;10.10;99.90;;;;;;6136949;23;20449;-77
2024/04/03 03:53:01;;;;;;;4.45;1.45;;;10.10;99.90;;;;;;6113385;23;20403;-78
2024/04/03 03:55:29;;;;;;;3.22;1.60;;;10.10;99.90;;;;;;6175825;23;20040;-77
2024/04/03 03:57:56;;;;;;;4.70;2.30;;;10.10;99.90;;;;;;6150483;23;20024;-77
2024/04/03 04:00:23;;;;;;;4.25;2.53;;;10.10;99.90;;;;;;6178034;23;20008;-77
2024/04/03 04:02:50;;;;;;;4.70;2.30;;;10.10;99.90;;;;;;6177664;23;20023;-76
2024/04/03 04:05:20;;;;;;;6.55;2.42;;;10.10;99.90;;;;;;6151097;23;20016;-74
2024/04/03 04:07:47;;;;;;;4.78;1.42;;;10.10;99.90;;;;;;6143994;23;20020;-76
2024/04/03 04:10:14;;;;;;;5.00;1.90;;;10.10;99.90;;;;;;6175662;23;20009;-75
2024/04/03 04:12:40;;;;;;;4.05;2.03;;;10.10;99.90;;;;;;6165622;23;20347;-76
2024/04/03 04:15:07;;;;;;;4.72;2.22;;;10.10;99.90;;;;;;6116095;23;20013;-77
2024/04/03 04:17:33;;;;;;;5.05;2.75;;;10.10;99.90;;;;;;6139877;23;20021;-77
2024/04/03 04:20:01;;;;;;;4.32;2.10;;;10.10;99.90;;;;;;6142481;23;20009;-76
2024/04/03 04:22:27;;;;;;;4.93;1.70;;;10.10;99.90;;;;;;6117947;23;20009;-75
2024/04/03 04:24:54;;;;;;;4.50;2.33;;;10.10;99.90;;;;;;6142053;23;20058;-76
2024/04/03 04:27:21;;;;;;;3.47;1.70;;;10.10;99.90;;;;;;6142000;23;20039;-77
2024/04/03 04:29:47;;;;;;;3.45;1.98;;;10.10;99.90;;;;;;6152085;23;20005;-76
2024/04/03 04:32:14;;;;;;;3.75;1.58;;;10.10;99.90;;;;;;6140869;23;20013;-76
2024/04/03 04:34:41;;;;;;;3.85;1.40;;;10.10;99.90;;;;;;6153186;23;20012;-76
2024/04/03 04:37:08;;;;;;;3.22;1.40;;;10.10;99.90;;;;;;6093483;23;20016;-76
2024/04/03 04:39:35;;;;;;;5.05;1.48;;;10.10;99.90;;;;;;6116682;23;20009;-76
2024/04/03 04:42:02;;;;;;;3.97;0.98;;;10.00;99.90;;;;;;6141624;23;20017;-76
2024/04/03 04:44:29;;;;;;;2.28;1.50;;;10.10;99.90;;;;;;6142524;23;20013;-76
2024/04/03 04:46:56;;;;;;;4.53;1.77;;;10.10;99.90;;;;;;6151933;23;20334;-76
2024/04/03 04:49:23;;;;;;;7.40;2.42;;;10.10;99.90;;;;;;6141159;23;20025;-76
2024/04/03 04:51:50;;;;;;;5.88;1.92;;;10.10;99.90;;;;;;6176652;23;20024;-77
2024/04/03 04:54:17;;;;;;;5.00;2.08;;;10.00;99.90;;;;;;6177756;23;20438;-76
2024/04/03 04:56:47;;;;;;;3.35;1.38;;;10.10;99.90;;;;;;6152420;23;20366;-76
2024/04/03 04:59:13;;;;;;;4.78;2.08;;;10.10;99.90;;;;;;6116752;23;20009;-76
2024/04/03 05:01:40;;;;;;;4.85;1.95;;;10.10;99.90;;;;;;6176795;23;20016;-75
2024/04/03 05:04:09;;;;;;;3.50;1.23;;;10.10;99.90;;;;;;6141808;23;20043;-76
2024/04/03 05:06:35;;;;;;;5.32;2.15;;;10.10;99.90;;;;;;6151178;23;20005;-76
2024/04/03 05:09:03;;;;;;;4.10;1.50;;;10.00;99.90;;;;;;6172366;23;20296;-75
2024/04/03 05:11:29;;;;;;;5.30;1.63;;;10.10;99.90;;;;;;6142239;23;20020;-76
2024/04/03 05:13:56;;;;;;;4.78;1.67;;;10.10;99.90;;;;;;6142558;23;20036;-75
2024/04/03 05:16:22;;;;;;;3.67;1.17;;;10.00;99.90;;;;;;6179928;23;20009;-76
2024/04/03 05:18:50;;;;;;;4.80;1.55;;;10.00;99.90;;;;;;6142289;23;20024;-75
2024/04/03 05:21:18;;;;;;;5.35;2.20;;;10.00;99.90;;;;;;6117533;23;20021;-76
2024/04/03 05:23:46;;;;;;;4.57;1.45;;;10.10;99.90;;;;;;6179199;23;20001;-76
2024/04/03 05:26:15;;;;;;;4.78;1.65;;;10.10;99.90;;;;;;6117004;23;20017;-76
2024/04/03 05:28:41;;;;;;;4.10;1.73;;;10.10;99.90;;;;;;6116918;23;20021;-76
2024/04/03 05:31:10;;;;;;;9.30;2.25;;;10.10;99.90;;;;;;6152870;23;20008;-77
2024/04/03 05:33:38;;;;;;;4.40;1.60;;;10.10;99.90;;;;;;6178915;23;20013;-75
2024/04/03 05:36:06;;;;;;;4.22;1.73;;;10.10;99.90;;;;;;6152251;23;20032;-76
2024/04/03 05:38:33;;;;;;;5.22;1.77;;;10.10;99.90;;;;;;6151372;23;20442;-76
2024/04/03 05:41:00;;;;;;;3.35;1.17;;;10.10;99.90;;;;;;6118513;23;20502;-77
2024/04/03 05:43:26;;;;;;;6.10;1.85;;;10.10;99.90;;;;;;6179054;23;20001;-77
2024/04/03 05:45:55;;;;;;;4.57;1.10;;;10.10;99.90;;;;;;6191601;23;20041;-76
2024/04/03 05:48:26;;;;;;;5.43;2.08;;;10.20;99.90;;;;;;6141696;23;20013;-76
2024/04/03 05:51:03;;;;;;;5.88;1.60;;;10.10;99.90;;;;;;6142511;23;20363;-77
2024/04/03 05:53:31;;;;;;;3.42;1.58;;;10.10;99.90;;;;;;6117929;23;20012;-77
2024/04/03 05:56:02;;;;;;;3.42;1.40;;;10.20;99.90;;;;;;6177802;23;20379;-76
2024/04/03 05:58:29;;;;;;;2.72;1.00;;;10.10;99.90;;;;;;6152031;23;20016;-75
2024/04/03 06:00:58;;;;;;;4.88;1.55;;;10.20;99.90;;;;;;6177867;23;20499;-77
2024/04/03 06:03:25;;;;;;;4.53;1.00;;;10.20;99.90;;;;;;6142283;23;20017;-76
2024/04/03 06:05:59;;;;;;;4.13;1.88;;;10.10;99.90;;;;;;6141746;23;20425;-75
2024/04/03 06:08:26;;;;;;;3.97;1.38;;;10.20;99.90;;;;;;6115458;23;20025;-76
2024/04/03 06:10:53;;;;;;;7.10;2.08;;;10.20;99.90;;;;;;6151926;23;20064;-76
2024/04/03 06:13:20;;;;;;;7.85;2.53;;;10.10;99.90;;;;;;6152825;23;20403;-76
2024/04/03 06:15:46;;;;;;;6.60;2.28;;;10.20;99.90;;;;;;6176985;23;20336;-76
2024/04/03 06:18:13;;;;;;;5.50;2.20;;;10.20;99.90;;;;;;6118195;23;20013;-76
2024/04/03 06:20:40;;;;;;;5.03;2.13;;;10.20;99.90;;;;;;6151544;23;20001;-75
2024/04/03 06:23:10;;;;;;;5.00;2.33;;;10.20;99.90;;;;;;6152432;23;20009;-76
2024/04/03 06:25:37;;;;;;;5.25;2.42;;;10.20;99.90;;;;;;6117595;23;20016;-76
2024/04/03 06:28:05;;;;;;;5.82;2.17;;;10.30;99.90;;;;;;6178785;23;20036;-75
2024/04/03 06:30:31;;;;;;;6.70;2.60;;;10.30;99.90;;;;;;6177715;23;20020;-75
2024/04/03 06:32:58;;;;;;;5.80;2.10;;;10.30;99.90;;;;;;6152148;23;20005;-75
2024/04/03 06:35:24;;;;;;;5.75;2.40;;;10.30;99.90;;;;;;6178808;23;20528;-75
2024/04/03 06:37:51;;;;;;;7.18;2.85;;;10.40;99.90;;;;;;6151693;23;20013;-76
2024/04/03 06:40:19;;;;;;;8.43;3.10;;;10.40;99.90;;;;;;6152802;23;20020;-76
2024/04/03 06:42:45;;;;;;;7.07;2.75;;;10.50;99.90;;;;;;6117411;23;20009;-75
2024/04/03 06:45:12;;;;;;;8.38;2.83;;;10.50;99.90;;;;;;6142087;23;20020;-75
2024/04/03 06:47:38;;;;;;;7.93;2.97;;;10.50;99.90;;;;;;6177054;23;20009;-75
2024/04/03 06:50:05;;;;;;;9.30;3.30;;;10.50;99.90;;;;;;6178797;23;20004;-75
2024/04/03 06:52:31;;;;;;;10.27;3.13;;;10.60;99.90;;;;;;6117699;23;20016;-76
2024/04/03 06:54:57;;;;;;;8.27;3.05;;;10.60;99.90;;;;;;6191693;23;20477;-76
2024/04/03 06:57:24;;;;;;;5.28;2.70;;;10.60;99.90;;;;;;6177089;23;20481;-76
2024/04/03 06:59:50;;;;;;;7.00;1.80;;;10.70;99.90;;;;;;6141649;23;20039;-76
2024/04/03 07:02:16;;;;;;;6.15;2.55;;;10.70;99.90;;;;;;6117867;23;20012;-76
2024/04/03 07:04:43;;;;;;;6.90;2.10;;;10.80;99.90;;;;;;6141659;23;20017;-75
2024/04/03 07:07:10;;;;;;;7.85;3.17;;;10.80;99.90;;;;;;6092035;23;20477;-76
2024/04/03 07:09:37;;;;;;;5.00;2.38;;;10.90;99.90;;;;;;6143207;23;20013;-76
2024/04/03 07:12:04;;;;;;;5.22;2.85;;;10.90;99.90;;;;;;6177115;23;20016;-76
2024/04/03 07:14:31;;;;;;;7.60;3.00;;;10.90;99.90;;;;;;6152060;23;20477;-77
2024/04/03 07:16:57;;;;;;;10.98;3.50;;;10.90;99.90;;;;;;6117056;23;20016;-75
2024/04/03 07:19:24;;;;;;;8.82;2.60;;;10.90;99.90;;;;;;6142419;23;20017;-75
2024/04/03 07:21:51;;;;;;;10.43;3.30;;;11.00;99.90;;;;;;6178658;23;20009;-75
2024/04/03 07:24:17;;;;;;;7.28;2.70;;;10.90;99.90;;;;;;6142343;23;20012;-74
2024/04/03 07:26:45;;;;;;;8.20;2.95;;;11.00;99.90;;;;;;6139854;23;20021;-75
2024/04/03 07:29:14;;;;;;;6.38;2.40;;;11.00;99.90;;;;;;6140504;23;20025;-74
2024/04/03 07:31:43;;;;;;;8.60;2.92;;;11.00;99.90;;;;;;6176066;23;20032;-74
2024/04/03 07:34:09;;;;;;;4.90;1.60;;;11.00;99.90;;;;;;6151630;23;20412;-74
2024/04/03 07:36:37;;;;;;;6.50;2.03;;;11.00;99.90;;;;;;6176997;23;20015;-74
2024/04/03 07:39:03;;;;;;;5.18;1.50;;;11.10;99.90;;;;;;6175829;23;20024;-75
2024/04/03 07:41:32;;;;;;;10.27;3.42;;;11.10;99.90;;;;;;6152940;23;20331;-75
2024/04/03 07:43:58;;;;;;;8.52;2.60;;;11.10;99.90;;;;;;6152571;23;20031;-74
2024/04/03 07:46:25;;;;;;;4.97;2.20;;;11.10;99.90;;;;;;6142323;23;20013;-73
2024/04/03 07:48:51;;;;;;;7.43;2.92;;;11.10;99.90;;;;;;6151481;23;20748;-74
2024/04/03 07:51:20;;;;;;;7.10;2.40;;;11.10;99.90;;;;;;6118172;23;20032;-74
2024/04/03 07:53:47;;;;;;;7.82;3.05;;;11.10;99.90;;;;;;6179008;23;20342;-73
2024/04/03 07:56:13;;;;;;;6.25;2.17;;;11.00;99.90;;;;;;6117298;23;20016;-75
2024/04/03 07:58:43;;;;;;;4.53;1.73;;;11.00;99.90;;;;;;6116888;23;20324;-74
2024/04/03 08:01:09;;;;;;;9.32;2.58;;;11.00;99.90;;;;;;6178374;23;20008;-75
2024/04/03 08:03:37;;;;;;;5.15;1.98;;;11.00;99.90;;;;;;6191384;23;20005;-75
2024/04/03 08:06:05;;;;;;;6.53;1.88;;;11.00;99.90;;;;;;6151252;23;20001;-75
2024/04/03 08:08:32;;;;;;;6.05;2.17;;;11.00;99.90;;;;;;6167226;23;20462;-75
2024/04/03 08:11:02;;;;;;;4.63;1.73;;;11.00;99.90;;;;;;6179262;23;20454;-75
2024/04/03 08:13:29;;;;;;;5.97;1.92;;;11.00;99.90;;;;;;6179712;23;20878;-75
2024/04/03 08:16:03;;;;;;;7.50;2.03;;;11.00;99.90;;;;;;6178480;23;20005;-75
2024/04/03 08:18:30;;;;;;;3.33;1.73;;;11.00;99.90;;;;;;6141730;23;20788;-75
2024/04/03 08:21:03;;;;;;;5.18;1.85;;;11.00;99.90;;;;;;6142613;23;20407;-75
2024/04/03 08:23:30;;;;;;;3.88;1.00;;;11.00;99.90;;;;;;6153128;23;20021;-75
2024/04/03 08:26:05;;;;;;;3.70;1.05;;;11.00;99.90;;;;;;6118239;23;20013;-75
2024/04/03 08:28:33;;;;;;;8.07;1.67;;;11.00;99.90;;;;;;6118300;23;20530;-74
2024/04/03 08:30:59;;;;;;;5.60;1.83;;;11.00;99.90;;;;;;6153346;23;20057;-75
2024/04/03 08:33:26;;;;;;;7.32;2.67;;;11.00;99.90;;;;;;6143190;23;20480;-75
2024/04/03 08:36:02;;;;;;;10.43;2.28;;;11.00;99.90;;;;;;6169668;23;19997;-74
2024/04/03 08:38:28;;;;;;;4.78;1.77;;;11.00;99.90;;;;;;6167287;23;20446;-74
2024/04/03 08:40:55;;;;;;;6.10;1.88;;;11.10;99.90;;;;;;6177825;23;19997;-75
2024/04/03 08:43:25;;;;;;;7.55;2.70;;;11.10;99.90;;;;;;6153328;23;20001;-75
2024/04/03 08:45:54;;;;;;;4.50;2.05;;;11.10;99.90;;;;;;6153137;23;20016;-74
2024/04/03 08:48:22;;;;;;;6.68;2.65;;;11.10;99.90;;;;;;6091719;23;20013;-75
2024/04/03 08:50:49;;;;;;;7.07;2.45;;;11.10;99.90;;;;;;6142765;23;20300;-75
2024/04/03 08:53:21;;;;;;;5.00;2.15;;;11.10;99.90;;;;;;6179845;23;20310;-75
2024/04/03 08:55:57;;;;;;;4.93;2.03;;;11.10;99.90;;;;;;6142728;23;20005;-74
2024/04/03 08:58:25;;;;;;;7.65;2.45;;;11.10;99.90;;;;;;6178557;23;20001;-75
2024/04/03 09:00:52;;;;;;;9.48;3.67;;;11.10;99.90;;;;;;6143429;23;20024;-75
2024/04/03 09:03:22;;;;;;;7.60;2.60;;;11.20;99.90;;;;;;6153741;23;20005;-76
2024/04/03 09:05:49;;;;;;;4.93;2.30;;;11.20;99.90;;;;;;6180948;23;20347;-75
2024/04/03 09:08:15;;;;;;;4.25;2.22;;;11.20;99.90;;;;;;6195254;23;20271;-75
2024/04/03 09:10:56;;;;;;;7.43;2.75;;;11.20;99.90;;;;;;6179813;23;20337;-75
2024/04/03 09:13:22;;;;;;;3.88;2.33;;;11.20;99.90;;;;;;6155375;23;20001;-75
2024/04/03 09:15:52;;;;;;;5.88;2.05;;;11.20;99.90;;;;;;6179741;23;19997;-75
2024/04/03 09:18:19;;;;;;;4.68;2.00;;;11.20;99.90;;;;;;6143663;23;20303;-75
2024/04/03 09:20:50;;;;;;;6.13;2.20;;;11.20;99.90;;;;;;6120352;23;20016;-74
2024/04/03 09:23:17;;;;;;;3.17;1.77;;;11.30;99.90;;;;;;6155850;23;20005;-74
2024/04/03 09:25:44;;;;;;;4.55;2.00;;;11.20;99.90;;;;;;6130743;23;20407;-75
2024/04/03 09:28:12;;;;;;;5.97;1.77;;;11.30;99.90;;;;;;6180240;23;20008;-75
2024/04/03 09:30:40;;;;;;;5.88;2.58;;;11.30;99.90;;;;;;6119654;23;20017;-75
2024/04/03 09:33:07;;;;;;;5.75;3.47;;;11.30;99.90;;;;;;6095574;23;20017;-75
2024/04/03 09:35:35;;;;;;;7.40;4.25;;;11.30;99.90;;;;;;6144059;23;20045;-75
2024/04/03 09:38:02;;;;;;;8.82;4.45;;;11.30;99.90;;;;;;6119280;23;20005;-79
2024/04/03 09:40:31;;;;;;;7.15;2.55;;;11.30;99.90;;;;;;6155103;23;20027;-77
2024/04/03 09:43:02;;;;;;;4.05;2.45;;;11.30;99.90;;;;;;6129637;23;20001;-77
2024/04/03 09:45:32;;;;;;;5.90;1.97;;;11.30;99.90;;;;;;6154046;23;20331;-79
2024/04/03 09:48:00;;;;;;;4.13;1.83;;;11.30;99.90;;;;;;6118399;23;20263;-77
2024/04/03 09:50:36;;;;;;;7.15;3.83;;;11.30;99.90;;;;;;6095306;23;20016;-78
2024/04/03 09:53:07;;;;;;;3.88;2.00;;;11.30;99.90;;;;;;6143791;23;20017;-79
2024/04/03 09:55:36;;;;;;;8.70;4.22;;;11.30;99.90;;;;;;6119692;23;20013;-78
2024/04/03 09:58:10;;;;;;;4.65;2.22;;;11.30;99.90;;;;;;6154164;23;20029;-81
2024/04/03 10:00:40;;;;;;;3.20;1.60;;;11.40;99.90;;;;;;6120308;23;19997;-83
2024/04/03 10:03:29;;;;;;;4.85;2.85;;;11.40;99.90;;;;;;6119359;23;20001;-78
2024/04/03 10:06:03;;;;;;;7.88;2.65;;;11.50;99.90;;;;;;6143499;23;20005;-79
2024/04/03 10:08:42;;;;;;;14.88;8.32;;;11.50;99.90;;;;;;6092242;23;20020;-76
2024/04/03 10:11:10;;;;;;;5.18;2.15;;;11.60;99.90;;;;;;6179990;23;20430;-76
2024/04/03 10:13:40;;;;;;;3.72;1.50;;;11.60;99.90;;;;;;6180184;23;19997;-76
2024/04/03 10:16:09;;;;;;;5.18;1.02;;;11.50;99.90;;;;;;6094421;23;20009;-75
2024/04/03 10:18:38;;;;;;;4.57;1.20;;;11.60;99.90;;;;;;6152736;23;20005;-75
2024/04/03 10:21:12;;;;;;;2.30;1.00;;;11.60;99.90;;;;;;6143280;23;20024;-76
2024/04/03 10:23:47;;;;;;;3.35;1.23;;;11.60;99.90;;;;;;6153717;23;20005;-77
2024/04/03 10:26:18;;;;;;;5.65;1.92;;;11.70;99.90;;;;;;6119303;23;20460;-76
2024/04/03 10:28:45;;;;;;;6.93;3.05;;;11.70;99.90;;;;;;6153463;23;20005;-77
2024/04/03 10:31:18;;;;;;;4.82;2.13;;;11.80;99.90;;;;;;6154997;23;20005;-76
2024/04/03 10:33:48;;;;;;;;;;;11.90;99.90;;;;;;6181543;23;20370;-76
2024/04/03 10:36:16;;;;;;;3.05;1.48;;;12.00;99.90;;;;;;6143699;23;19916;-76
2024/04/03 10:38:44;;;;;;;3.63;1.30;;;12.20;99.90;;;;;;6152498;23;20008;-75
2024/04/03 10:41:11;;;;;;;4.47;1.30;;;12.40;99.90;;;;;;6144311;23;19997;-75
2024/04/03 10:43:37;;;;;;;3.88;1.77;;;12.70;99.90;;;;;;6119520;23;20027;-75
2024/04/03 10:46:05;;;;;;;3.30;1.55;;;12.90;99.90;;;;;;6178747;23;20330;-75
2024/04/03 10:48:32;;;;;;;4.53;1.55;;;13.00;99.90;;;;;;6142954;23;20330;-75
2024/04/03 10:50:58;;;;;;;4.95;1.30;;;12.90;99.90;;;;;;6144526;23;20040;-75
2024/04/03 10:53:24;;;;;;;3.00;1.25;;;12.90;99.90;;;;;;6143428;23;20020;-75
2024/04/03 10:55:51;;;;;;;5.70;1.05;;;12.90;99.90;;;;;;6179248;23;20437;-74
2024/04/03 10:58:20;;;;;;;2.65;1.08;;;12.90;99.90;;;;;;6143127;23;20465;-76
2024/04/03 11:00:46;;;;;;;3.05;1.27;;;12.90;99.90;;;;;;6145178;23;20012;-75
2024/04/03 11:03:14;;;;;;;2.72;1.02;;;13.00;99.90;;;;;;6181368;23;20004;-76
2024/04/03 11:05:41;;;;;;;6.88;2.08;;;13.10;99.90;;;;;;6181479;23;20001;-74
2024/04/03 11:08:11;;;;;;;3.50;1.42;;;13.10;99.90;;;;;;6173771;23;20028;-75
2024/04/03 11:10:38;;;;;;;2.35;1.08;;;13.20;99.90;;;;;;6155277;23;20005;-76
2024/04/03 11:13:09;;;;;;;1.75;0.95;;;13.20;99.90;;;;;;6144601;23;20017;-75
2024/04/03 11:15:36;;;;;;;1.85;1.15;;;13.20;99.90;;;;;;6180978;23;19997;-75
2024/04/03 11:18:03;;;;;;;3.08;1.20;;;13.20;99.90;;;;;;6095620;23;20013;-75
2024/04/03 11:20:31;;;;;;;2.20;0.70;;;13.10;99.90;;;;;;6181291;23;20008;-75
2024/04/03 11:23:01;;;;;;;1.70;0.70;;;13.10;99.90;;;;;;6120567;23;20005;-75
2024/04/03 11:25:29;;;;;;;2.75;1.15;;;13.10;99.90;;;;;;6120444;23;20465;-75
2024/04/03 11:27:59;;;;;;;2.00;0.70;;;13.10;99.90;;;;;;6153844;23;20005;-75
2024/04/03 11:30:27;;;;;;;1.88;0.98;;;13.20;99.90;;;;;;6144450;23;20017;-75
2024/04/03 11:32:57;;;;;;;2.92;1.10;;;13.20;99.90;;;;;;6145500;23;20012;-75
2024/04/03 11:35:24;;;;;;;2.17;1.20;;;13.20;99.90;;;;;;6194319;23;20013;-75
2024/04/03 11:37:51;;;;;;;3.40;0.90;;;13.30;99.90;;;;;;6153850;23;20009;-76
2024/04/03 11:40:17;;;;;;;1.35;0.70;;;13.30;99.90;;;;;;6179630;23;20001;-75
2024/04/03 11:42:44;;;;;;;2.28;1.42;;;13.30;99.90;;;;;;6180136;23;20506;-75
2024/04/03 11:45:10;;;;;;;2.88;0.93;;;13.30;99.90;;;;;;6144409;23;20001;-75
2024/04/03 11:47:37;;;;;;;1.90;0.80;;;13.20;99.90;;;;;;6143644;23;20347;-75
2024/04/03 11:50:05;;;;;;;2.90;0.80;;;13.10;99.90;;;;;;6154429;23;20005;-75
2024/04/03 11:52:32;;;;;;;1.67;0.82;;;13.10;99.90;;;;;;6120477;23;20012;-75
2024/04/03 11:54:59;;;;;;;1.45;0.93;;;13.10;99.90;;;;;;6155039;23;20008;-75
2024/04/03 11:57:25;;;;;;;1.75;1.10;;;13.10;99.90;;;;;;6179602;23;20012;-75
2024/04/03 11:59:51;;;;;;;3.47;1.85;;;13.10;99.90;;;;;;6143303;23;20009;-75
2024/04/03 12:02:18;;;;;;;2.30;0.82;;;13.10;99.90;;;;;;6144216;23;20012;-75
2024/04/03 12:04:46;;;;;;;3.80;1.20;;;13.10;99.90;;;;;;6120056;23;20334;-81
2024/04/03 12:07:13;;;;;;;3.72;1.15;;;13.10;99.90;;;;;;6143496;23;20337;-76
2024/04/03 12:09:41;;;;;;;1.55;0.98;;;13.00;99.90;;;;;;6170715;23;20019;-77
2024/04/03 12:12:10;;;;;;;6.72;3.15;;;12.90;99.90;;;;;;6143262;23;20021;-76
2024/04/03 12:14:37;;;;;;;3.70;2.90;;;12.90;99.90;;;;;;6143908;23;20442;-76
2024/04/03 12:17:05;;;;;;;5.05;2.15;;;12.90;99.90;;;;;;6180347;23;20001;-76
2024/04/03 12:19:44;;;;;;;5.22;2.15;;;12.90;99.90;;;;;;6153703;23;20005;-77
2024/04/03 12:22:14;;;;;;;2.10;1.13;;;13.00;99.90;;;;;;6178879;23;20005;-77
2024/04/03 12:24:42;;;;;;;1.90;1.05;;;13.00;99.90;;;;;;6178863;23;20024;-75
2024/04/03 12:27:08;;;;;;;3.08;1.30;;;12.90;99.90;;;;;;6152894;23;20005;-76
2024/04/03 12:29:35;;;;;;;1.48;1.10;;;12.90;99.90;;;;;;6152912;23;20020;-76
2024/04/03 12:32:02;;;;;;;2.92;1.48;;;12.90;99.90;;;;;;6119670;23;20013;-80
2024/04/03 12:34:28;;;;;;;1.98;0.70;;;12.90;99.90;;;;;;6144477;23;20314;-78
2024/04/03 12:36:54;;;;;;;0.80;0.50;;;12.90;99.90;;;;;;6153512;23;20013;-78
2024/04/03 12:39:23;;;;;;;2.72;1.95;;;12.90;99.90;;;;;;6180675;23;20016;-78
2024/04/03 12:41:50;;;;;;;11.73;6.72;;;12.90;99.90;;;;;;6120397;23;20310;-76
2024/04/03 12:44:17;;;;;;;6.05;3.83;;;13.00;99.90;;;;;;6145338;23;20009;-77
2024/04/03 12:46:43;;;;;;;4.45;2.00;;;13.00;99.90;;;;;;6119647;23;20036;-77
2024/04/03 12:49:11;;;;;;;2.53;1.27;;;13.10;99.90;;;;;;6144402;23;20029;-77
2024/04/03 12:51:37;;;;;;;3.05;1.42;;;13.10;99.90;;;;;;6096427;23;20346;-77
2024/04/03 12:54:03;;;;;;;1.55;0.80;;;13.20;99.90;;;;;;6180021;23;20005;-77